createdAt,value
2023-05-09T00:01:07.497Z,8.85
2023-05-09T00:03:34.108Z,9.02
2023-05-09T00:08:27.181Z,9.68
2023-05-09T00:10:53.874Z,9.65
2023-05-09T00:13:20.430Z,10.35
2023-05-09T00:15:47.115Z,9.68
2023-05-09T00:20:41.057Z,10.05
2023-05-09T00:23:07.626Z,9.43
2023-05-09T00:28:00.659Z,10.02
2023-05-09T00:30:27.613Z,10.23
2023-05-09T00:35:20.686Z,9.18
2023-05-09T00:37:47.585Z,9.45
2023-05-09T00:42:40.763Z,9.52
2023-05-09T00:45:08.048Z,9.35
2023-05-09T00:47:35.579Z,8.90
2023-05-09T00:50:02.361Z,10.07
2023-05-09T00:52:29.163Z,10.05
2023-05-09T00:54:56.502Z,9.05
2023-05-09T00:57:23.319Z,8.80
2023-05-09T00:59:50.188Z,9.32
2023-05-09T01:02:20.585Z,9.80
2023-05-09T01:04:47.608Z,9.63
2023-05-09T01:07:25.889Z,9.30
2023-05-09T01:10:02.808Z,9.70
2023-05-09T01:12:45.459Z,9.60
2023-05-09T01:15:21.626Z,9.57
2023-05-09T01:17:58.487Z,9.63
2023-05-09T01:20:46.534Z,9.60
2023-05-09T01:23:39.665Z,8.98
2023-05-09T01:26:17.669Z,9.80
2023-05-09T01:29:06.310Z,9.75
2023-05-09T01:31:37.519Z,8.80
2023-05-09T01:34:06.561Z,9.40
2023-05-09T01:36:34.540Z,9.48
2023-05-09T01:39:04.195Z,9.43
2023-05-09T01:41:31.918Z,9.48
2023-05-09T01:44:02.106Z,8.68
2023-05-09T01:46:29.303Z,9.52
2023-05-09T01:48:57.319Z,10.02
2023-05-09T01:51:26.886Z,8.55
2023-05-09T01:53:56.743Z,9.95
2023-05-09T01:56:24.429Z,9.40
2023-05-09T01:58:52.547Z,10.15
2023-05-09T02:01:20.033Z,9.82
2023-05-09T02:03:50.650Z,10.45
2023-05-09T02:06:19.164Z,10.77
2023-05-09T02:08:46.540Z,9.93
2023-05-09T02:11:13.179Z,9.82
2023-05-09T02:13:39.883Z,9.90
2023-05-09T02:16:08.073Z,10.88
2023-05-09T02:18:37.169Z,10.95
2023-05-09T02:21:04.315Z,11.93
2023-05-09T02:23:31.366Z,10.70
2023-05-09T02:25:57.856Z,10.85
2023-05-09T02:28:27.560Z,11.80
2023-05-09T02:30:56.158Z,10.23
2023-05-09T02:33:23.509Z,11.63
2023-05-09T02:35:51.231Z,10.85
2023-05-09T02:38:19.195Z,11.45
2023-05-09T02:40:47.533Z,12.68
2023-05-09T02:43:15.256Z,10.57
2023-05-09T02:45:42.089Z,11.15
2023-05-09T02:48:09.372Z,10.88
2023-05-09T02:50:38.204Z,10.73
2023-05-09T02:53:05.489Z,10.50
2023-05-09T02:55:31.942Z,10.82
2023-05-09T03:00:40.560Z,10.45
2023-05-09T03:03:08.144Z,12.38
2023-05-09T03:05:34.855Z,11.70
2023-05-09T03:08:01.429Z,11.52
2023-05-09T03:12:54.360Z,11.65
2023-05-09T03:17:48.258Z,11.25
2023-05-09T03:20:15.721Z,12.30
2023-05-09T03:22:42.433Z,12.30
2023-05-09T03:25:11.036Z,12.38
2023-05-09T03:27:38.453Z,11.73
2023-05-09T03:30:08.472Z,13.00
2023-05-09T03:32:35.146Z,12.55
2023-05-09T03:37:28.826Z,11.63
2023-05-09T03:39:55.599Z,11.50
2023-05-09T03:42:22.897Z,12.55
2023-05-09T03:44:51.061Z,12.73
2023-05-09T03:47:21.454Z,13.80
2023-05-09T03:49:48.922Z,13.43
2023-05-09T03:52:18.525Z,11.77
2023-05-09T03:54:45.468Z,13.27
2023-05-09T03:57:11.918Z,13.57
2023-05-09T04:02:05.089Z,14.55
2023-05-09T04:04:31.735Z,13.85
2023-05-09T04:06:58.783Z,13.85
2023-05-09T04:09:25.544Z,13.10
2023-05-09T04:11:53.514Z,13.52
2023-05-09T04:16:46.718Z,13.98
2023-05-09T04:19:13.309Z,14.82
2023-05-09T04:24:07.210Z,12.80
2023-05-09T04:26:42.946Z,14.73
2023-05-09T04:29:13.639Z,14.50
2023-05-09T04:31:41.319Z,12.15
2023-05-09T04:34:10.091Z,12.32
2023-05-09T04:36:38.067Z,12.85
2023-05-09T04:39:05.307Z,12.70
2023-05-09T04:41:33.558Z,13.20
2023-05-09T04:44:00.160Z,12.27
2023-05-09T04:46:27.067Z,12.20
2023-05-09T04:48:54.125Z,12.38
2023-05-09T04:53:47.094Z,11.77
2023-05-09T04:56:15.387Z,10.80
2023-05-09T04:58:43.176Z,10.15
2023-05-09T05:01:10.716Z,9.45
2023-05-09T05:03:38.221Z,8.98
2023-05-09T05:06:05.737Z,8.88
2023-05-09T05:08:33.113Z,7.93
2023-05-09T05:10:59.676Z,7.57
2023-05-09T05:13:26.423Z,7.55
2023-05-09T05:15:57.871Z,6.55
2023-05-09T05:18:24.987Z,7.30
2023-05-09T05:20:51.619Z,7.53
2023-05-09T05:23:18.426Z,7.25
2023-05-09T05:25:45.091Z,6.88
2023-05-09T05:28:13.105Z,6.93
2023-05-09T05:30:41.032Z,6.88
2023-05-09T05:33:07.582Z,5.28
2023-05-09T05:35:34.224Z,5.60
2023-05-09T05:38:01.041Z,5.10
2023-05-09T05:40:28.050Z,5.97
2023-05-09T05:42:55.872Z,5.63
2023-05-09T05:45:23.340Z,6.53
2023-05-09T05:47:54.405Z,5.90
2023-05-09T05:50:22.462Z,5.82
2023-05-09T05:52:49.227Z,5.95
2023-05-09T05:55:18.030Z,6.03
2023-05-09T05:57:46.889Z,6.88
2023-05-09T06:00:15.233Z,5.85
2023-05-09T06:02:50.074Z,6.65
2023-05-09T06:05:24.939Z,6.07
2023-05-09T06:07:52.136Z,7.22
2023-05-09T06:10:18.639Z,7.63
2023-05-09T06:12:45.557Z,6.47
2023-05-09T06:15:12.454Z,6.30
2023-05-09T06:17:42.609Z,6.57
2023-05-09T06:20:09.333Z,6.38
2023-05-09T06:22:35.817Z,7.10
2023-05-09T06:25:02.469Z,6.95
2023-05-09T06:27:29.026Z,6.97
2023-05-09T06:32:21.939Z,6.20
2023-05-09T06:37:14.915Z,6.60
2023-05-09T06:42:07.849Z,6.15
2023-05-09T06:44:38.071Z,6.38
2023-05-09T06:47:04.618Z,6.05
2023-05-09T06:51:57.550Z,7.30
2023-05-09T06:56:50.569Z,6.97
2023-05-09T07:01:43.614Z,6.65
2023-05-09T07:04:10.932Z,6.93
2023-05-09T07:06:37.390Z,6.50
2023-05-09T07:56:39.991Z,6.32
2023-05-09T07:59:06.541Z,6.65
2023-05-09T08:04:00.063Z,6.20
2023-05-09T08:06:26.729Z,6.10
2023-05-09T08:11:19.873Z,6.03
2023-05-09T08:13:46.948Z,5.78
2023-05-09T08:16:13.695Z,5.82
2023-05-09T08:18:40.244Z,6.35
2023-05-09T08:23:33.486Z,5.75
2023-05-09T08:26:01.046Z,5.68
2023-05-09T08:28:28.561Z,5.28
2023-05-09T08:30:56.000Z,5.85
2023-05-09T08:33:22.734Z,5.50
2023-05-09T08:35:56.376Z,5.97
2023-05-09T08:38:24.248Z,5.18
2023-05-09T08:40:50.813Z,5.07
2023-05-09T08:45:51.440Z,4.80
2023-05-09T08:48:19.158Z,5.05
2023-05-09T08:50:45.751Z,4.85
2023-05-09T08:55:39.194Z,4.63
2023-05-09T08:58:06.154Z,5.50
2023-05-09T09:00:33.716Z,5.93
2023-05-09T09:03:03.287Z,4.97
2023-05-09T09:05:41.474Z,5.13
2023-05-09T09:08:10.820Z,4.63
2023-05-09T09:10:47.577Z,5.55
2023-05-09T09:18:22.699Z,4.50
2023-05-09T09:21:18.394Z,4.00
2023-05-09T09:23:47.538Z,3.45
2023-05-09T09:26:14.999Z,3.83
2023-05-09T09:28:42.547Z,3.22
2023-05-09T09:31:22.440Z,3.75
2023-05-09T09:33:49.572Z,3.83
2023-05-09T09:36:16.197Z,4.00
2023-05-09T09:38:43.934Z,4.70
2023-05-09T09:41:12.589Z,3.92
2023-05-09T09:43:39.143Z,4.20
2023-05-09T09:46:05.932Z,3.90
2023-05-09T09:48:34.568Z,4.10
2023-05-09T09:51:13.413Z,4.00
2023-05-09T09:53:41.418Z,4.18
2023-05-09T09:56:08.472Z,3.65
2023-05-09T09:58:35.545Z,4.03
2023-05-09T10:01:07.331Z,4.72
2023-05-09T10:03:41.941Z,3.83
2023-05-09T10:06:16.466Z,4.13
2023-05-09T10:08:47.223Z,4.03
2023-05-09T10:11:14.186Z,3.85
2023-05-09T10:13:41.323Z,4.15
2023-05-09T10:16:08.995Z,4.30
2023-05-09T10:18:36.196Z,4.65
2023-05-09T10:21:05.108Z,3.67
2023-05-09T10:23:34.437Z,4.90
2023-05-09T10:26:06.802Z,4.07
2023-05-09T10:28:35.853Z,3.72
2023-05-09T10:31:17.487Z,4.47
2023-05-09T10:33:48.157Z,4.78
2023-05-09T10:36:18.197Z,4.25
2023-05-09T10:38:45.302Z,4.25
2023-05-09T10:41:12.258Z,4.78
2023-05-09T10:43:39.410Z,4.38
2023-05-09T10:46:07.073Z,3.90
2023-05-09T10:48:34.049Z,4.55
2023-05-09T10:51:02.312Z,4.20
2023-05-09T10:53:49.725Z,3.60
2023-05-09T10:56:30.113Z,3.78
2023-05-09T10:58:57.378Z,3.85
2023-05-09T11:01:37.584Z,3.95
2023-05-09T11:04:16.605Z,4.32
2023-05-09T11:06:50.753Z,3.42
2023-05-09T11:09:35.806Z,3.97
2023-05-09T11:12:05.495Z,3.78
2023-05-09T11:14:45.034Z,4.00
2023-05-09T11:17:20.867Z,4.07
2023-05-09T11:19:47.510Z,3.45
2023-05-09T11:22:16.173Z,4.80
2023-05-09T11:24:47.609Z,4.53
2023-05-09T11:27:28.384Z,4.75
2023-05-09T11:29:59.786Z,4.22
2023-05-09T11:32:32.280Z,4.18
2023-05-09T11:35:09.954Z,4.00
2023-05-09T11:37:52.968Z,4.10
2023-05-09T11:40:21.743Z,3.90
2023-05-09T11:42:54.086Z,3.83
2023-05-09T11:45:24.364Z,4.68
2023-05-09T11:47:51.511Z,4.20
2023-05-09T11:50:19.885Z,4.50
2023-05-09T11:52:47.317Z,4.00
2023-05-09T11:55:15.704Z,5.07
2023-05-09T11:57:46.632Z,4.05
2023-05-09T12:00:16.041Z,4.00
2023-05-09T12:02:44.486Z,5.15
2023-05-09T12:05:15.606Z,4.50
2023-05-09T12:07:42.672Z,4.80
2023-05-09T12:10:11.381Z,5.30
2023-05-09T12:12:43.393Z,4.10
2023-05-09T12:15:10.502Z,4.80
2023-05-09T12:17:37.424Z,4.40
2023-05-09T12:20:07.426Z,4.13
2023-05-09T12:22:34.382Z,4.68
2023-05-09T12:25:05.483Z,4.97
2023-05-09T12:27:33.158Z,3.95
2023-05-09T12:30:08.470Z,3.78
2023-05-09T12:32:36.732Z,3.88
2023-05-09T12:35:03.474Z,3.85
2023-05-09T12:37:32.628Z,3.97
2023-05-09T12:40:12.561Z,3.75
2023-05-09T12:42:39.823Z,4.15
2023-05-09T12:45:08.726Z,4.13
2023-05-09T12:47:35.543Z,4.25
2023-05-09T12:50:05.481Z,3.55
2023-05-09T12:52:50.213Z,3.10
2023-05-09T12:55:25.314Z,4.30
2023-05-09T13:00:26.264Z,4.03
2023-05-09T13:02:53.072Z,3.95
2023-05-09T13:05:22.310Z,3.83
2023-05-09T13:07:56.659Z,4.20
2023-05-09T13:10:25.142Z,3.63
2023-05-09T13:12:52.781Z,4.00
2023-05-09T13:15:21.577Z,3.60
2023-05-09T13:17:49.775Z,3.83
2023-05-09T13:20:17.227Z,2.65
2023-05-09T13:22:45.156Z,3.35
2023-05-09T13:25:12.695Z,4.15
2023-05-09T13:27:39.260Z,4.93
2023-05-09T13:30:09.334Z,3.10
2023-05-09T13:32:36.657Z,4.40
2023-05-09T13:35:06.539Z,3.97
2023-05-09T13:37:33.871Z,4.53
2023-05-09T13:40:00.621Z,4.57
2023-05-09T13:42:27.883Z,4.18
2023-05-09T13:44:54.426Z,4.25
2023-05-09T13:47:21.081Z,4.10
2023-05-09T13:49:47.665Z,3.70
2023-05-09T13:52:16.096Z,3.67
2023-05-09T13:54:42.672Z,3.92
2023-05-09T13:57:09.225Z,3.65
2023-05-09T13:59:36.316Z,3.65
2023-05-09T14:02:03.716Z,3.80
2023-05-09T14:04:34.424Z,4.13
2023-05-09T14:07:01.559Z,3.97
2023-05-09T14:09:28.819Z,4.05
2023-05-09T14:11:55.624Z,3.42
2023-05-09T14:14:23.884Z,3.20
2023-05-09T14:16:51.087Z,3.10
2023-05-09T14:19:17.663Z,3.28
2023-05-09T14:21:46.776Z,3.78
2023-05-09T14:24:16.147Z,3.83
2023-05-09T14:26:43.191Z,3.15
2023-05-09T14:29:09.911Z,3.28
2023-05-09T14:31:36.912Z,3.80
2023-05-09T14:34:05.183Z,3.00
2023-05-09T14:36:32.465Z,3.28
2023-05-09T14:38:58.932Z,3.03
2023-05-09T14:41:25.492Z,2.90
2023-05-09T14:43:52.407Z,3.25
2023-05-09T14:46:19.138Z,3.35
2023-05-09T14:48:45.763Z,3.60
2023-05-09T14:51:12.313Z,3.03
2023-05-09T14:53:41.981Z,3.45
2023-05-09T14:56:11.168Z,3.75
2023-05-09T14:58:37.877Z,3.63
2023-05-09T15:01:04.572Z,2.95
2023-05-09T15:03:31.487Z,3.50
2023-05-09T15:05:59.142Z,3.13
2023-05-09T15:08:26.018Z,3.20
2023-05-09T15:10:52.901Z,3.65
2023-05-09T15:13:19.563Z,3.50
2023-05-09T15:15:46.106Z,3.17
2023-05-09T15:20:39.911Z,2.88
2023-05-09T15:23:07.869Z,3.72
2023-05-09T15:25:34.505Z,3.45
2023-05-09T15:30:27.463Z,4.20
2023-05-09T15:32:53.990Z,4.05
2023-05-09T15:35:20.497Z,3.63
2023-05-09T15:40:13.513Z,4.97
2023-05-09T15:42:40.150Z,4.88
2023-05-09T15:47:33.593Z,4.38
2023-05-09T15:50:00.171Z,4.32
2023-05-09T15:52:27.921Z,3.40
2023-05-09T15:57:21.466Z,4.85
2023-05-09T16:02:14.353Z,5.20
2023-05-09T16:07:08.943Z,4.93
2023-05-09T16:09:35.448Z,4.50
2023-05-09T16:14:28.399Z,16.48
2023-05-09T16:19:21.716Z,4.63
2023-05-09T16:21:48.587Z,5.30
2023-05-09T16:24:15.111Z,5.60
2023-05-09T16:29:08.281Z,4.88
2023-05-09T16:31:35.725Z,5.78
2023-05-09T16:34:02.852Z,4.72
2023-05-09T16:36:29.973Z,5.60
2023-05-09T16:38:56.484Z,5.20
2023-05-09T16:43:49.532Z,4.90
2023-05-09T16:48:42.819Z,4.82
2023-05-09T16:53:36.748Z,5.78
2023-05-09T16:56:04.266Z,5.78
2023-05-09T16:58:30.814Z,5.38
2023-05-09T17:03:24.523Z,5.72
2023-05-09T17:08:17.782Z,6.15
2023-05-09T17:10:44.256Z,6.20
2023-05-09T17:15:38.404Z,5.60
2023-05-09T17:18:05.175Z,4.63
2023-05-09T17:20:31.850Z,5.10
2023-05-09T17:22:58.338Z,4.65
2023-05-09T17:27:51.267Z,4.57
2023-05-09T17:30:19.911Z,4.32
2023-05-09T17:32:48.012Z,5.28
2023-05-09T17:35:14.984Z,5.13
2023-05-09T17:37:41.578Z,4.68
2023-05-09T17:40:08.731Z,4.90
2023-05-09T17:42:35.209Z,4.40
2023-05-09T17:47:28.962Z,4.82
2023-05-09T17:49:55.535Z,4.57
2023-05-09T17:54:48.891Z,4.50
2023-05-09T17:57:15.371Z,5.15
2023-05-09T18:02:08.633Z,5.13
2023-05-09T18:04:35.260Z,4.22
2023-05-09T18:07:01.848Z,5.20
2023-05-09T18:11:55.216Z,4.17
2023-05-09T18:14:21.767Z,5.00
2023-05-09T18:19:14.725Z,3.88
2023-05-09T18:21:41.526Z,4.00
2023-05-09T18:24:09.169Z,4.43
2023-05-09T18:26:35.870Z,4.07
2023-05-09T18:29:02.431Z,3.60
2023-05-09T18:33:56.357Z,3.90
2023-05-09T18:36:23.135Z,4.00
2023-05-09T18:38:49.716Z,3.63
2023-05-09T18:43:46.695Z,3.50
2023-05-09T18:46:17.759Z,4.13
2023-05-09T18:48:45.562Z,3.85
2023-05-09T18:51:12.175Z,3.50
2023-05-09T18:53:38.708Z,3.90
2023-05-09T18:58:32.435Z,3.67
2023-05-09T19:00:59.175Z,4.28
2023-05-09T19:03:27.115Z,4.50
2023-05-09T19:05:54.133Z,4.13
2023-05-09T19:08:20.800Z,5.18
2023-05-09T19:10:47.304Z,4.30
2023-05-09T19:15:43.324Z,4.13
2023-05-09T19:18:09.793Z,4.15
2023-05-09T19:23:03.311Z,3.78
2023-05-09T19:25:33.662Z,5.15
2023-05-09T19:28:00.247Z,3.92
2023-05-09T19:30:27.650Z,4.75
2023-05-09T19:35:20.758Z,4.18
2023-05-09T19:37:47.201Z,4.45
2023-05-09T19:40:14.206Z,3.85
2023-05-09T19:42:41.883Z,4.38
2023-05-09T19:45:09.020Z,4.30
2023-05-09T19:47:35.674Z,4.43
2023-05-09T19:50:02.356Z,4.93
2023-05-09T19:52:29.677Z,4.88
2023-05-09T19:54:56.155Z,4.13
2023-05-09T19:59:49.260Z,4.47
2023-05-09T20:02:15.706Z,4.03
2023-05-09T20:04:46.542Z,4.13
2023-05-09T20:07:13.111Z,4.32
2023-05-09T20:12:06.379Z,4.10
2023-05-09T20:14:32.837Z,4.07
2023-05-09T20:16:59.445Z,4.30
2023-05-09T20:19:25.944Z,4.35
2023-05-09T20:24:19.479Z,4.10
2023-05-09T20:26:45.932Z,5.00
2023-05-09T20:29:12.748Z,4.20
2023-05-09T20:31:39.237Z,4.53
2023-05-09T20:36:32.523Z,4.07
2023-05-09T20:38:59.072Z,4.40
2023-05-09T20:43:52.188Z,4.20
2023-05-09T20:46:18.763Z,4.35
2023-05-09T20:48:45.497Z,4.65
2023-05-09T20:53:38.313Z,3.70
2023-05-09T20:56:05.070Z,4.07
2023-05-09T20:58:33.178Z,4.60
2023-05-09T21:01:00.129Z,5.40
2023-05-09T21:03:27.629Z,4.32
2023-05-09T21:08:20.634Z,4.18
2023-05-09T21:13:13.723Z,4.05
2023-05-09T21:15:40.365Z,4.22
2023-05-09T21:20:33.401Z,4.82
2023-05-09T21:23:00.039Z,3.95
2023-05-09T21:25:26.571Z,5.03
2023-05-09T21:27:52.996Z,4.25
2023-05-09T21:30:19.511Z,4.65
2023-05-09T21:35:13.724Z,4.43
2023-05-09T21:37:40.846Z,4.68
2023-05-09T21:40:08.021Z,5.25
2023-05-09T21:42:35.960Z,5.20
2023-05-09T21:45:02.541Z,5.22
2023-05-09T21:49:56.228Z,5.07
2023-05-09T21:52:23.576Z,4.82
2023-05-09T21:54:50.070Z,4.53
2023-05-09T21:59:43.192Z,5.28
2023-05-09T22:18:11.619Z,8.55
2023-05-09T22:20:38.370Z,8.35
2023-05-09T22:23:04.982Z,7.50
2023-05-09T22:27:58.146Z,7.90
2023-05-09T22:30:24.994Z,10.85
2023-05-09T22:32:51.750Z,9.63
2023-05-09T22:35:18.440Z,8.60
2023-05-09T22:37:45.159Z,9.50
2023-05-09T22:40:13.906Z,8.38
2023-05-09T22:42:40.811Z,9.90
2023-05-09T22:45:08.348Z,9.20
2023-05-09T22:47:35.177Z,7.68
2023-05-09T22:50:02.659Z,7.80
2023-05-09T22:52:29.594Z,7.90
2023-05-09T22:54:56.422Z,8.05
2023-05-09T22:57:23.915Z,8.20
2023-05-09T22:59:51.212Z,7.13
2023-05-09T23:02:17.953Z,7.78
2023-05-09T23:04:44.593Z,8.27
2023-05-09T23:07:11.203Z,8.07
2023-05-09T23:09:38.448Z,7.65
2023-05-09T23:12:05.652Z,8.10
2023-05-09T23:14:32.540Z,8.02
2023-05-09T23:16:59.167Z,8.40
2023-05-09T23:19:25.938Z,8.55
2023-05-09T23:21:53.226Z,9.23
2023-05-09T23:24:19.990Z,7.20
2023-05-09T23:26:46.637Z,7.47
2023-05-09T23:29:13.438Z,7.45
2023-05-09T23:31:40.196Z,8.75
2023-05-09T23:34:06.909Z,8.35
2023-05-09T23:36:33.662Z,7.63
2023-05-09T23:39:00.543Z,8.35
2023-05-09T23:41:27.589Z,8.32
2023-05-09T23:43:54.231Z,9.48
2023-05-09T23:46:21.212Z,9.15
2023-05-09T23:48:47.934Z,8.10
2023-05-09T23:51:14.609Z,8.60
2023-05-09T23:53:41.268Z,8.25
2023-05-09T23:56:08.334Z,8.00
2023-05-09T23:58:35.032Z,7.82
